sensor_id;sensor_type;location;lat;lon;timestamp;temperature;humidity
52643;DHT22;38531;53.296;6.614;2023-06-14T07:55:27;22.30;93.30
52643;DHT22;38531;53.296;6.614;2023-06-14T07:57:54;22.50;93.60
52643;DHT22;38531;53.296;6.614;2023-06-14T08:00:20;22.60;93.30
52643;DHT22;38531;53.296;6.614;2023-06-14T08:02:46;22.70;93.50
52643;DHT22;38531;53.296;6.614;2023-06-14T08:05:12;22.70;93.30
52643;DHT22;38531;53.296;6.614;2023-06-14T08:07:39;22.70;92.90
52643;DHT22;38531;53.296;6.614;2023-06-14T08:10:05;22.70;92.40
52643;DHT22;38531;53.296;6.614;2023-06-14T08:12:37;22.80;92.90
52643;DHT22;38531;53.296;6.614;2023-06-14T08:15:03;22.90;92.80
52643;DHT22;38531;53.296;6.614;2023-06-14T08:17:29;22.90;92.40
52643;DHT22;38531;53.296;6.614;2023-06-14T08:19:55;22.80;92.00
52643;DHT22;38531;53.296;6.614;2023-06-14T08:22:23;22.90;93.10
52643;DHT22;38531;53.296;6.614;2023-06-14T08:24:50;23.10;93.60
52643;DHT22;38531;53.296;6.614;2023-06-14T08:27:15;23.40;93.20
52643;DHT22;38531;53.296;6.614;2023-06-14T08:29:41;23.30;92.30
52643;DHT22;38531;53.296;6.614;2023-06-14T08:32:07;23.30;92.50
52643;DHT22;38531;53.296;6.614;2023-06-14T08:34:33;23.30;91.70
52643;DHT22;38531;53.296;6.614;2023-06-14T08:36:59;23.40;91.50
52643;DHT22;38531;53.296;6.614;2023-06-14T08:39:24;23.40;91.40
52643;DHT22;38531;53.296;6.614;2023-06-14T08:41:52;23.60;91.20
52643;DHT22;38531;53.296;6.614;2023-06-14T08:44:18;23.60;90.00
52643;DHT22;38531;53.296;6.614;2023-06-14T08:46:44;23.40;90.50
52643;DHT22;38531;53.296;6.614;2023-06-14T08:49:16;23.40;90.30
52643;DHT22;38531;53.296;6.614;2023-06-14T08:51:43;23.50;91.10
52643;DHT22;38531;53.296;6.614;2023-06-14T08:54:11;23.60;90.60
52643;DHT22;38531;53.296;6.614;2023-06-14T08:56:38;23.80;90.80
52643;DHT22;38531;53.296;6.614;2023-06-14T08:59:07;24.00;90.50
52643;DHT22;38531;53.296;6.614;2023-06-14T09:01:34;24.00;90.60
52643;DHT22;38531;53.296;6.614;2023-06-14T09:04:00;24.20;90.70
52643;DHT22;38531;53.296;6.614;2023-06-14T09:06:28;24.30;90.60
52643;DHT22;38531;53.296;6.614;2023-06-14T09:08:55;24.20;89.80
52643;DHT22;38531;53.296;6.614;2023-06-14T09:11:23;24.10;89.60
52643;DHT22;38531;53.296;6.614;2023-06-14T09:13:49;24.10;90.70
52643;DHT22;38531;53.296;6.614;2023-06-14T09:16:18;24.20;89.90
52643;DHT22;38531;53.296;6.614;2023-06-14T09:18:45;24.30;89.40
52643;DHT22;38531;53.296;6.614;2023-06-14T09:21:14;24.50;90.10
52643;DHT22;38531;53.296;6.614;2023-06-14T09:23:45;24.50;90.00
52643;DHT22;38531;53.296;6.614;2023-06-14T09:26:15;24.40;90.00
52643;DHT22;38531;53.296;6.614;2023-06-14T09:28:48;24.60;89.80
52643;DHT22;38531;53.296;6.614;2023-06-14T09:31:16;24.60;89.40
52643;DHT22;38531;53.296;6.614;2023-06-14T09:33:43;24.50;87.50
52643;DHT22;38531;53.296;6.614;2023-06-14T09:36:23;24.60;88.40
52643;DHT22;38531;53.296;6.614;2023-06-14T09:38:58;24.40;86.10
52643;DHT22;38531;53.296;6.614;2023-06-14T09:41:34;24.40;86.50
52643;DHT22;38531;53.296;6.614;2023-06-14T09:44:00;24.50;87.00
52643;DHT22;38531;53.296;6.614;2023-06-14T09:46:28;24.60;88.30
52643;DHT22;38531;53.296;6.614;2023-06-14T09:48:57;24.90;87.70
52643;DHT22;38531;53.296;6.614;2023-06-14T09:51:24;24.70;86.30
52643;DHT22;38531;53.296;6.614;2023-06-14T09:53:50;24.70;86.20
52643;DHT22;38531;53.296;6.614;2023-06-14T09:58:55;24.80;84.80
52643;DHT22;38531;53.296;6.614;2023-06-14T10:01:22;24.90;84.80
52643;DHT22;38531;53.296;6.614;2023-06-14T10:03:50;24.90;83.80
52643;DHT22;38531;53.296;6.614;2023-06-14T10:06:20;24.90;83.90
52643;DHT22;38531;53.296;6.614;2023-06-14T10:08:51;24.90;85.40
52643;DHT22;38531;53.296;6.614;2023-06-14T10:11:17;25.00;83.00
52643;DHT22;38531;53.296;6.614;2023-06-14T10:13:43;25.10;85.10
52643;DHT22;38531;53.296;6.614;2023-06-14T10:16:15;25.20;84.50
52643;DHT22;38531;53.296;6.614;2023-06-14T10:18:51;25.50;84.30
52643;DHT22;38531;53.296;6.614;2023-06-14T10:21:43;25.40;85.00
52643;DHT22;38531;53.296;6.614;2023-06-14T10:24:16;25.40;83.30
52643;DHT22;38531;53.296;6.614;2023-06-14T10:26:51;25.50;83.50
52643;DHT22;38531;53.296;6.614;2023-06-14T10:29:17;25.20;82.80
52643;DHT22;38531;53.296;6.614;2023-06-14T10:31:44;25.50;82.00
52643;DHT22;38531;53.296;6.614;2023-06-14T10:34:11;25.40;82.90
52643;DHT22;38531;53.296;6.614;2023-06-14T10:36:41;25.50;81.40
52643;DHT22;38531;53.296;6.614;2023-06-14T10:39:10;25.70;81.80
52643;DHT22;38531;53.296;6.614;2023-06-14T10:41:56;25.90;83.50
52643;DHT22;38531;53.296;6.614;2023-06-14T10:46:53;25.80;80.90
52643;DHT22;38531;53.296;6.614;2023-06-14T10:49:55;25.90;81.40
52643;DHT22;38531;53.296;6.614;2023-06-14T10:52:32;25.90;79.40
52643;DHT22;38531;53.296;6.614;2023-06-14T10:57:46;25.90;80.00
52643;DHT22;38531;53.296;6.614;2023-06-14T11:00:14;26.10;80.30
52643;DHT22;38531;53.296;6.614;2023-06-14T11:11:00;26.10;81.90
52643;DHT22;38531;53.296;6.614;2023-06-14T11:13:31;26.30;80.40
52643;DHT22;38531;53.296;6.614;2023-06-14T11:15:56;26.20;79.80
52643;DHT22;38531;53.296;6.614;2023-06-14T11:18:23;26.40;81.00
52643;DHT22;38531;53.296;6.614;2023-06-14T11:20:55;26.80;80.00
52643;DHT22;38531;53.296;6.614;2023-06-14T11:23:22;26.90;78.90
52643;DHT22;38531;53.296;6.614;2023-06-14T11:25:51;26.90;80.40
52643;DHT22;38531;53.296;6.614;2023-06-14T11:28:17;26.90;79.60
52643;DHT22;38531;53.296;6.614;2023-06-14T11:33:34;27.10;79.70
52643;DHT22;38531;53.296;6.614;2023-06-14T11:36:02;27.20;78.80
52643;DHT22;38531;53.296;6.614;2023-06-14T11:38:35;27.10;77.90
52643;DHT22;38531;53.296;6.614;2023-06-14T11:41:07;27.40;78.80
52643;DHT22;38531;53.296;6.614;2023-06-14T11:43:32;27.50;77.80
52643;DHT22;38531;53.296;6.614;2023-06-14T11:46:03;27.30;78.60
52643;DHT22;38531;53.296;6.614;2023-06-14T11:48:40;27.30;78.30
52643;DHT22;38531;53.296;6.614;2023-06-14T11:51:06;27.40;78.90
52643;DHT22;38531;53.296;6.614;2023-06-14T11:53:32;27.90;77.80
52643;DHT22;38531;53.296;6.614;2023-06-14T11:56:00;28.20;77.70
52643;DHT22;38531;53.296;6.614;2023-06-14T11:58:27;28.40;75.50
52643;DHT22;38531;53.296;6.614;2023-06-14T12:00:54;28.40;74.80
52643;DHT22;38531;53.296;6.614;2023-06-14T12:03:28;28.20;73.90
52643;DHT22;38531;53.296;6.614;2023-06-14T12:06:07;28.00;73.50
52643;DHT22;38531;53.296;6.614;2023-06-14T12:08:37;28.00;75.40
52643;DHT22;38531;53.296;6.614;2023-06-14T12:11:10;27.80;73.10
52643;DHT22;38531;53.296;6.614;2023-06-14T12:13:40;27.80;74.10
52643;DHT22;38531;53.296;6.614;2023-06-14T12:16:08;27.50;71.80
52643;DHT22;38531;53.296;6.614;2023-06-14T12:18:38;27.70;73.10
52643;DHT22;38531;53.296;6.614;2023-06-14T12:21:09;28.00;73.30
52643;DHT22;38531;53.296;6.614;2023-06-14T12:23:49;28.30;74.40
52643;DHT22;38531;53.296;6.614;2023-06-14T12:26:19;28.30;74.10
52643;DHT22;38531;53.296;6.614;2023-06-14T12:28:46;28.10;73.90
52643;DHT22;38531;53.296;6.614;2023-06-14T12:31:14;27.50;73.40
52643;DHT22;38531;53.296;6.614;2023-06-14T12:33:40;27.20;73.60
52643;DHT22;38531;53.296;6.614;2023-06-14T12:36:10;27.30;75.50
52643;DHT22;38531;53.296;6.614;2023-06-14T12:38:36;27.50;73.50
52643;DHT22;38531;53.296;6.614;2023-06-14T12:41:02;28.00;76.00
52643;DHT22;38531;53.296;6.614;2023-06-14T12:43:28;28.10;73.90
52643;DHT22;38531;53.296;6.614;2023-06-14T12:45:54;28.20;73.80
52643;DHT22;38531;53.296;6.614;2023-06-14T12:48:21;28.20;71.20
52643;DHT22;38531;53.296;6.614;2023-06-14T12:50:47;27.60;71.50
52643;DHT22;38531;53.296;6.614;2023-06-14T12:53:13;27.40;72.80
52643;DHT22;38531;53.296;6.614;2023-06-14T12:55:39;27.60;72.80
52643;DHT22;38531;53.296;6.614;2023-06-14T12:58:05;27.60;73.00
52643;DHT22;38531;53.296;6.614;2023-06-14T13:00:31;27.00;72.30
52643;DHT22;38531;53.296;6.614;2023-06-14T13:02:57;27.00;72.30
52643;DHT22;38531;53.296;6.614;2023-06-14T13:05:23;26.90;74.30
52643;DHT22;38531;53.296;6.614;2023-06-14T13:07:49;26.70;73.20
52643;DHT22;38531;53.296;6.614;2023-06-14T13:10:16;26.40;72.90
52643;DHT22;38531;53.296;6.614;2023-06-14T13:12:42;26.30;74.10
52643;DHT22;38531;53.296;6.614;2023-06-14T13:15:09;26.70;74.20
52643;DHT22;38531;53.296;6.614;2023-06-14T13:17:35;26.60;74.80
52643;DHT22;38531;53.296;6.614;2023-06-14T13:20:07;26.50;74.10
52643;DHT22;38531;53.296;6.614;2023-06-14T13:22:36;26.50;74.10
52643;DHT22;38531;53.296;6.614;2023-06-14T13:25:03;26.90;73.10
52643;DHT22;38531;53.296;6.614;2023-06-14T13:27:29;27.20;74.30
52643;DHT22;38531;53.296;6.614;2023-06-14T13:29:55;27.60;73.70
52643;DHT22;38531;53.296;6.614;2023-06-14T13:32:21;27.40;73.50
52643;DHT22;38531;53.296;6.614;2023-06-14T13:34:47;27.00;73.20
52643;DHT22;38531;53.296;6.614;2023-06-14T13:37:13;27.00;73.80
52643;DHT22;38531;53.296;6.614;2023-06-14T13:39:39;27.20;73.40
52643;DHT22;38531;53.296;6.614;2023-06-14T13:42:05;27.60;73.60
52643;DHT22;38531;53.296;6.614;2023-06-14T13:44:31;27.80;73.60
52643;DHT22;38531;53.296;6.614;2023-06-14T13:46:57;28.00;71.90
52643;DHT22;38531;53.296;6.614;2023-06-14T13:49:23;27.70;70.90
52643;DHT22;38531;53.296;6.614;2023-06-14T13:51:48;27.10;72.20
52643;DHT22;38531;53.296;6.614;2023-06-14T13:54:14;27.30;72.10
52643;DHT22;38531;53.296;6.614;2023-06-14T13:56:41;27.50;71.60
52643;DHT22;38531;53.296;6.614;2023-06-14T13:59:06;27.90;71.40
52643;DHT22;38531;53.296;6.614;2023-06-14T14:01:32;27.30;71.30
52643;DHT22;38531;53.296;6.614;2023-06-14T14:03:58;27.30;72.60
52643;DHT22;38531;53.296;6.614;2023-06-14T14:06:26;26.90;72.50
52643;DHT22;38531;53.296;6.614;2023-06-14T14:08:52;26.60;71.80
52643;DHT22;38531;53.296;6.614;2023-06-14T14:11:18;26.70;72.90
52643;DHT22;38531;53.296;6.614;2023-06-14T14:13:44;27.20;71.60
52643;DHT22;38531;53.296;6.614;2023-06-14T14:16:10;27.80;73.20
52643;DHT22;38531;53.296;6.614;2023-06-14T14:18:36;28.20;72.20
52643;DHT22;38531;53.296;6.614;2023-06-14T14:21:02;28.20;71.90
52643;DHT22;38531;53.296;6.614;2023-06-14T14:23:28;27.80;71.80
52643;DHT22;38531;53.296;6.614;2023-06-14T14:25:55;27.20;72.40
52643;DHT22;38531;53.296;6.614;2023-06-14T14:28:20;27.30;72.90
52643;DHT22;38531;53.296;6.614;2023-06-14T14:30:47;27.70;72.70
52643;DHT22;38531;53.296;6.614;2023-06-14T14:33:13;28.00;71.50
52643;DHT22;38531;53.296;6.614;2023-06-14T14:35:42;28.10;71.20
52643;DHT22;38531;53.296;6.614;2023-06-14T14:38:08;28.20;72.10
52643;DHT22;38531;53.296;6.614;2023-06-14T14:40:34;28.50;68.60
52643;DHT22;38531;53.296;6.614;2023-06-14T14:43:00;28.60;69.90
52643;DHT22;38531;53.296;6.614;2023-06-14T14:45:26;29.00;69.80
52643;DHT22;38531;53.296;6.614;2023-06-14T14:47:51;29.10;68.90
52643;DHT22;38531;53.296;6.614;2023-06-14T14:50:17;29.60;69.00
52643;DHT22;38531;53.296;6.614;2023-06-14T14:52:43;29.50;69.40
52643;DHT22;38531;53.296;6.614;2023-06-14T14:55:09;29.00;76.30
52643;DHT22;38531;53.296;6.614;2023-06-14T14:57:35;27.80;77.60
52643;DHT22;38531;53.296;6.614;2023-06-14T15:00:03;27.30;79.40
52643;DHT22;38531;53.296;6.614;2023-06-14T15:02:29;27.00;80.70
52643;DHT22;38531;53.296;6.614;2023-06-14T15:04:55;27.00;81.40
52643;DHT22;38531;53.296;6.614;2023-06-14T15:07:22;27.00;82.50
52643;DHT22;38531;53.296;6.614;2023-06-14T15:09:48;27.10;83.00
52643;DHT22;38531;53.296;6.614;2023-06-14T15:12:16;27.30;83.50
52643;DHT22;38531;53.296;6.614;2023-06-14T15:14:42;27.30;82.60
52643;DHT22;38531;53.296;6.614;2023-06-14T15:17:07;27.40;81.50
52643;DHT22;38531;53.296;6.614;2023-06-14T15:19:33;27.50;81.70
52643;DHT22;38531;53.296;6.614;2023-06-14T15:21:59;26.60;81.80
52643;DHT22;38531;53.296;6.614;2023-06-14T15:24:25;26.30;84.50
52643;DHT22;38531;53.296;6.614;2023-06-14T15:26:51;25.60;85.30
52643;DHT22;38531;53.296;6.614;2023-06-14T15:29:16;25.30;85.80
52643;DHT22;38531;53.296;6.614;2023-06-14T15:31:42;25.30;87.90
52643;DHT22;38531;53.296;6.614;2023-06-14T15:34:08;25.20;87.60
52643;DHT22;38531;53.296;6.614;2023-06-14T15:36:34;25.50;88.30
52643;DHT22;38531;53.296;6.614;2023-06-14T15:39:00;26.20;86.00
52643;DHT22;38531;53.296;6.614;2023-06-14T15:41:26;25.80;86.10
52643;DHT22;38531;53.296;6.614;2023-06-14T15:43:51;25.50;85.50
52643;DHT22;38531;53.296;6.614;2023-06-14T15:46:20;25.30;87.30
52643;DHT22;38531;53.296;6.614;2023-06-14T15:48:46;25.20;87.70
52643;DHT22;38531;53.296;6.614;2023-06-14T15:51:12;25.50;87.20
52643;DHT22;38531;53.296;6.614;2023-06-14T15:53:38;25.40;87.10
52643;DHT22;38531;53.296;6.614;2023-06-14T15:56:03;25.90;88.50
52643;DHT22;38531;53.296;6.614;2023-06-14T15:58:29;25.50;87.10
52643;DHT22;38531;53.296;6.614;2023-06-14T16:00:55;25.50;87.50
52643;DHT22;38531;53.296;6.614;2023-06-14T16:03:20;25.80;88.40
52643;DHT22;38531;53.296;6.614;2023-06-14T16:05:46;25.70;87.70
52643;DHT22;38531;53.296;6.614;2023-06-14T16:08:12;25.50;88.30
52643;DHT22;38531;53.296;6.614;2023-06-14T16:10:40;25.80;88.50
52643;DHT22;38531;53.296;6.614;2023-06-14T16:13:06;25.90;86.80
52643;DHT22;38531;53.296;6.614;2023-06-14T16:15:32;25.70;86.80
52643;DHT22;38531;53.296;6.614;2023-06-14T16:17:57;25.70;86.60
52643;DHT22;38531;53.296;6.614;2023-06-14T16:20:23;25.40;86.60
52643;DHT22;38531;53.296;6.614;2023-06-14T16:22:49;25.70;87.20
52643;DHT22;38531;53.296;6.614;2023-06-14T16:25:15;25.30;87.30
52643;DHT22;38531;53.296;6.614;2023-06-14T16:27:40;25.00;88.00
52643;DHT22;38531;53.296;6.614;2023-06-14T16:30:06;24.70;88.50
52643;DHT22;38531;53.296;6.614;2023-06-14T16:32:32;24.70;87.70
52643;DHT22;38531;53.296;6.614;2023-06-14T16:34:59;24.60;88.80
52643;DHT22;38531;53.296;6.614;2023-06-14T16:37:25;24.50;88.60
52643;DHT22;38531;53.296;6.614;2023-06-14T16:39:50;24.60;88.10
52643;DHT22;38531;53.296;6.614;2023-06-14T16:42:16;24.60;89.10
52643;DHT22;38531;53.296;6.614;2023-06-14T16:44:42;24.60;89.70
52643;DHT22;38531;53.296;6.614;2023-06-14T16:47:07;24.30;90.00
52643;DHT22;38531;53.296;6.614;2023-06-14T16:49:35;24.20;90.10
52643;DHT22;38531;53.296;6.614;2023-06-14T16:52:01;24.10;90.80
52643;DHT22;38531;53.296;6.614;2023-06-14T16:54:27;24.10;90.50
52643;DHT22;38531;53.296;6.614;2023-06-14T16:56:52;23.90;90.60
52643;DHT22;38531;53.296;6.614;2023-06-14T16:59:18;23.70;90.80
52643;DHT22;38531;53.296;6.614;2023-06-14T17:01:43;23.30;91.00
52643;DHT22;38531;53.296;6.614;2023-06-14T17:04:09;23.40;91.30
52643;DHT22;38531;53.296;6.614;2023-06-14T17:06:35;23.30;91.50
52643;DHT22;38531;53.296;6.614;2023-06-14T17:09:01;23.30;91.90
52643;DHT22;38531;53.296;6.614;2023-06-14T17:11:26;23.30;92.10
52643;DHT22;38531;53.296;6.614;2023-06-14T17:13:52;23.30;92.10
52643;DHT22;38531;53.296;6.614;2023-06-14T17:16:19;23.10;92.50
52643;DHT22;38531;53.296;6.614;2023-06-14T17:18:45;23.20;92.40
52643;DHT22;38531;53.296;6.614;2023-06-14T17:21:12;23.10;92.70
52643;DHT22;38531;53.296;6.614;2023-06-14T17:23:39;23.10;92.80
52643;DHT22;38531;53.296;6.614;2023-06-14T17:26:05;22.90;92.90
52643;DHT22;38531;53.296;6.614;2023-06-14T17:28:30;22.70;92.90
52643;DHT22;38531;53.296;6.614;2023-06-14T17:30:56;22.70;93.40
52643;DHT22;38531;53.296;6.614;2023-06-14T17:33:22;22.60;93.20
52643;DHT22;38531;53.296;6.614;2023-06-14T17:35:47;22.60;93.30
52643;DHT22;38531;53.296;6.614;2023-06-14T17:38:13;22.60;93.30
52643;DHT22;38531;53.296;6.614;2023-06-14T17:40:39;22.60;93.60
52643;DHT22;38531;53.296;6.614;2023-06-14T17:43:04;22.50;93.90
52643;DHT22;38531;53.296;6.614;2023-06-14T17:45:30;22.50;94.10
52643;DHT22;38531;53.296;6.614;2023-06-14T17:47:56;22.40;94.30
52643;DHT22;38531;53.296;6.614;2023-06-14T17:50:21;22.40;94.30
52643;DHT22;38531;53.296;6.614;2023-06-14T17:52:47;22.40;94.40
52643;DHT22;38531;53.296;6.614;2023-06-14T17:55:13;22.40;94.10
52643;DHT22;38531;53.296;6.614;2023-06-14T17:57:39;22.30;94.00
52643;DHT22;38531;53.296;6.614;2023-06-14T18:00:05;22.20;94.20
52643;DHT22;38531;53.296;6.614;2023-06-14T18:02:31;22.20;93.70
52643;DHT22;38531;53.296;6.614;2023-06-14T18:04:56;22.20;94.10
52643;DHT22;38531;53.296;6.614;2023-06-14T18:07:22;22.20;94.10
52643;DHT22;38531;53.296;6.614;2023-06-14T18:09:48;22.20;94.30
52643;DHT22;38531;53.296;6.614;2023-06-14T18:12:13;22.20;94.00
52643;DHT22;38531;53.296;6.614;2023-06-14T18:14:39;22.10;94.40
52643;DHT22;38531;53.296;6.614;2023-06-14T18:17:05;22.10;94.30
52643;DHT22;38531;53.296;6.614;2023-06-14T18:19:31;22.20;94.40
52643;DHT22;38531;53.296;6.614;2023-06-14T18:21:56;22.00;94.20
52643;DHT22;38531;53.296;6.614;2023-06-14T18:24:23;21.90;94.30
52643;DHT22;38531;53.296;6.614;2023-06-14T18:26:48;21.90;94.60
52643;DHT22;38531;53.296;6.614;2023-06-14T18:29:14;21.90;94.80
52643;DHT22;38531;53.296;6.614;2023-06-14T18:31:41;21.90;94.60
52643;DHT22;38531;53.296;6.614;2023-06-14T18:34:08;22.50;94.90
52643;DHT22;38531;53.296;6.614;2023-06-14T18:36:36;21.80;95.10
52643;DHT22;38531;53.296;6.614;2023-06-14T18:39:05;21.60;95.50
52643;DHT22;38531;53.296;6.614;2023-06-14T18:41:30;21.40;96.10
52643;DHT22;38531;53.296;6.614;2023-06-14T18:43:56;21.20;97.00
52643;DHT22;38531;53.296;6.614;2023-06-14T18:46:22;21.10;97.00
52643;DHT22;38531;53.296;6.614;2023-06-14T18:48:48;21.10;97.10
52643;DHT22;38531;53.296;6.614;2023-06-14T18:51:14;21.00;97.90
52643;DHT22;38531;53.296;6.614;2023-06-14T18:53:40;21.00;98.10
52643;DHT22;38531;53.296;6.614;2023-06-14T18:56:06;20.90;98.00
52643;DHT22;38531;53.296;6.614;2023-06-14T18:58:32;20.80;99.10
52643;DHT22;38531;53.296;6.614;2023-06-14T19:00:58;22.00;99.40
52643;DHT22;38531;53.296;6.614;2023-06-14T19:05:50;20.40;98.70
52643;DHT22;38531;53.296;6.614;2023-06-14T19:08:16;20.30;99.10
52643;DHT22;38531;53.296;6.614;2023-06-14T19:10:42;20.20;99.70
52643;DHT22;38531;53.296;6.614;2023-06-14T19:13:08;20.00;99.90
52643;DHT22;38531;53.296;6.614;2023-06-14T19:15:37;19.90;99.90
52643;DHT22;38531;53.296;6.614;2023-06-14T19:18:03;19.90;99.90
52643;DHT22;38531;53.296;6.614;2023-06-14T19:20:30;19.90;99.90
52643;DHT22;38531;53.296;6.614;2023-06-14T19:22:57;19.80;99.90
52643;DHT22;38531;53.296;6.614;2023-06-14T19:25:22;19.70;99.90
52643;DHT22;38531;53.296;6.614;2023-06-14T19:27:48;19.60;99.90
52643;DHT22;38531;53.296;6.614;2023-06-14T19:30:15;19.70;99.90
52643;DHT22;38531;53.296;6.614;2023-06-14T19:32:41;19.60;99.90
52643;DHT22;38531;53.296;6.614;2023-06-14T19:35:08;19.40;99.90
52643;DHT22;38531;53.296;6.614;2023-06-14T19:37:34;19.30;99.90
52643;DHT22;38531;53.296;6.614;2023-06-14T19:40:03;19.30;99.90
52643;DHT22;38531;53.296;6.614;2023-06-14T19:42:29;19.20;99.90
52643;DHT22;38531;53.296;6.614;2023-06-14T19:44:54;19.20;99.90
52643;DHT22;38531;53.296;6.614;2023-06-14T19:47:20;19.10;99.90
52643;DHT22;38531;53.296;6.614;2023-06-14T19:49:46;19.10;99.90
52643;DHT22;38531;53.296;6.614;2023-06-14T19:52:11;18.90;99.90
52643;DHT22;38531;53.296;6.614;2023-06-14T19:54:37;18.80;99.90
52643;DHT22;38531;53.296;6.614;2023-06-14T19:57:03;18.70;99.90
52643;DHT22;38531;53.296;6.614;2023-06-14T19:59:29;18.70;99.90
52643;DHT22;38531;53.296;6.614;2023-06-14T20:01:57;18.60;99.90
52643;DHT22;38531;53.296;6.614;2023-06-14T20:04:24;18.50;99.90
52643;DHT22;38531;53.296;6.614;2023-06-14T20:06:50;18.40;99.90
52643;DHT22;38531;53.296;6.614;2023-06-14T20:09:24;18.30;99.90
52643;DHT22;38531;53.296;6.614;2023-06-14T20:11:51;18.30;99.90
52643;DHT22;38531;53.296;6.614;2023-06-14T20:14:17;18.20;99.90
52643;DHT22;38531;53.296;6.614;2023-06-14T20:16:43;18.10;99.90
52643;DHT22;38531;53.296;6.614;2023-06-14T20:19:09;18.00;99.90
52643;DHT22;38531;53.296;6.614;2023-06-14T20:21:35;18.00;99.90
52643;DHT22;38531;53.296;6.614;2023-06-14T20:24:02;17.90;99.90
52643;DHT22;38531;53.296;6.614;2023-06-14T20:26:27;17.80;99.90
52643;DHT22;38531;53.296;6.614;2023-06-14T20:28:53;17.80;99.90
52643;DHT22;38531;53.296;6.614;2023-06-14T20:31:22;17.70;99.90
52643;DHT22;38531;53.296;6.614;2023-06-14T20:33:47;17.70;99.90
52643;DHT22;38531;53.296;6.614;2023-06-14T20:36:14;17.40;99.90
52643;DHT22;38531;53.296;6.614;2023-06-14T20:38:40;17.50;99.90
52643;DHT22;38531;53.296;6.614;2023-06-14T20:41:05;17.40;99.90
52643;DHT22;38531;53.296;6.614;2023-06-14T20:43:31;17.40;99.90
52643;DHT22;38531;53.296;6.614;2023-06-14T20:45:57;17.30;99.90
52643;DHT22;38531;53.296;6.614;2023-06-14T20:48:24;17.30;99.90
52643;DHT22;38531;53.296;6.614;2023-06-14T20:50:50;17.30;99.90
52643;DHT22;38531;53.296;6.614;2023-06-14T20:53:16;17.30;99.90
52643;DHT22;38531;53.296;6.614;2023-06-14T20:55:42;17.20;99.90
52643;DHT22;38531;53.296;6.614;2023-06-14T20:58:07;17.20;99.90
52643;DHT22;38531;53.296;6.614;2023-06-14T21:00:34;17.10;99.90
52643;DHT22;38531;53.296;6.614;2023-06-14T21:03:01;17.10;99.90
52643;DHT22;38531;53.296;6.614;2023-06-14T21:05:31;17.00;99.90
52643;DHT22;38531;53.296;6.614;2023-06-14T21:07:57;16.90;99.90
52643;DHT22;38531;53.296;6.614;2023-06-14T21:10:23;16.90;99.90
52643;DHT22;38531;53.296;6.614;2023-06-14T21:12:49;16.90;99.90
52643;DHT22;38531;53.296;6.614;2023-06-14T21:17:40;16.90;99.90
52643;DHT22;38531;53.296;6.614;2023-06-14T21:20:07;16.90;99.90
52643;DHT22;38531;53.296;6.614;2023-06-14T21:22:34;16.80;99.90
52643;DHT22;38531;53.296;6.614;2023-06-14T21:25:00;16.70;99.90
52643;DHT22;38531;53.296;6.614;2023-06-14T21:27:26;16.60;99.90
52643;DHT22;38531;53.296;6.614;2023-06-14T21:29:52;16.60;99.90
52643;DHT22;38531;53.296;6.614;2023-06-14T21:32:19;16.50;99.90
52643;DHT22;38531;53.296;6.614;2023-06-14T21:34:45;16.50;99.90
52643;DHT22;38531;53.296;6.614;2023-06-14T21:37:11;16.50;99.90
52643;DHT22;38531;53.296;6.614;2023-06-14T21:39:37;16.40;99.90
52643;DHT22;38531;53.296;6.614;2023-06-14T21:42:06;16.40;99.90
52643;DHT22;38531;53.296;6.614;2023-06-14T21:44:39;16.40;99.90
52643;DHT22;38531;53.296;6.614;2023-06-14T21:47:06;16.40;99.90
52643;DHT22;38531;53.296;6.614;2023-06-14T21:49:32;16.30;99.90
52643;DHT22;38531;53.296;6.614;2023-06-14T21:51:58;16.30;99.90
52643;DHT22;38531;53.296;6.614;2023-06-14T21:54:23;16.30;99.90
52643;DHT22;38531;53.296;6.614;2023-06-14T21:56:49;16.20;99.90
52643;DHT22;38531;53.296;6.614;2023-06-14T21:59:15;16.20;99.90
52643;DHT22;38531;53.296;6.614;2023-06-14T22:01:40;16.20;99.90
52643;DHT22;38531;53.296;6.614;2023-06-14T22:04:06;16.20;99.90
52643;DHT22;38531;53.296;6.614;2023-06-14T22:06:32;16.20;99.90
52643;DHT22;38531;53.296;6.614;2023-06-14T22:08:57;16.10;99.90
52643;DHT22;38531;53.296;6.614;2023-06-14T22:11:23;16.10;99.90
52643;DHT22;38531;53.296;6.614;2023-06-14T22:13:55;16.10;99.90
52643;DHT22;38531;53.296;6.614;2023-06-14T22:16:21;16.10;99.90
52643;DHT22;38531;53.296;6.614;2023-06-14T22:18:50;16.00;99.90
52643;DHT22;38531;53.296;6.614;2023-06-14T22:21:17;16.00;99.90
52643;DHT22;38531;53.296;6.614;2023-06-14T22:23:45;16.00;99.90
52643;DHT22;38531;53.296;6.614;2023-06-14T22:26:11;15.90;99.90
52643;DHT22;38531;53.296;6.614;2023-06-14T22:28:38;15.80;99.90
52643;DHT22;38531;53.296;6.614;2023-06-14T22:31:09;15.80;99.90
52643;DHT22;38531;53.296;6.614;2023-06-14T22:33:37;15.70;99.90
52643;DHT22;38531;53.296;6.614;2023-06-14T22:36:15;15.60;99.90
52643;DHT22;38531;53.296;6.614;2023-06-14T22:38:42;15.60;99.90
52643;DHT22;38531;53.296;6.614;2023-06-14T22:41:08;15.50;99.90
52643;DHT22;38531;53.296;6.614;2023-06-14T22:43:39;15.60;99.90
52643;DHT22;38531;53.296;6.614;2023-06-14T22:46:07;15.50;99.90
52643;DHT22;38531;53.296;6.614;2023-06-14T22:48:37;15.40;99.90
52643;DHT22;38531;53.296;6.614;2023-06-14T22:51:15;15.40;99.90
52643;DHT22;38531;53.296;6.614;2023-06-14T22:53:41;15.40;99.90
52643;DHT22;38531;53.296;6.614;2023-06-14T22:56:11;15.40;99.90
52643;DHT22;38531;53.296;6.614;2023-06-14T22:58:38;15.40;99.90
52643;DHT22;38531;53.296;6.614;2023-06-14T23:01:09;15.40;99.90
52643;DHT22;38531;53.296;6.614;2023-06-14T23:03:35;15.40;99.90
52643;DHT22;38531;53.296;6.614;2023-06-14T23:06:04;15.30;99.90
52643;DHT22;38531;53.296;6.614;2023-06-14T23:08:35;15.40;99.90
52643;DHT22;38531;53.296;6.614;2023-06-14T23:11:02;15.30;99.90
52643;DHT22;38531;53.296;6.614;2023-06-14T23:13:28;15.30;99.90
52643;DHT22;38531;53.296;6.614;2023-06-14T23:15:54;15.20;99.90
52643;DHT22;38531;53.296;6.614;2023-06-14T23:21:39;15.10;99.90
52643;DHT22;38531;53.296;6.614;2023-06-14T23:24:05;15.20;99.90
52643;DHT22;38531;53.296;6.614;2023-06-14T23:26:31;15.10;99.90
52643;DHT22;38531;53.296;6.614;2023-06-14T23:28:57;15.10;99.90
52643;DHT22;38531;53.296;6.614;2023-06-14T23:31:25;15.10;99.90
52643;DHT22;38531;53.296;6.614;2023-06-14T23:37:42;15.10;99.90
52643;DHT22;38531;53.296;6.614;2023-06-14T23:40:08;15.00;99.90
52643;DHT22;38531;53.296;6.614;2023-06-14T23:42:36;15.10;99.90
52643;DHT22;38531;53.296;6.614;2023-06-14T23:45:06;15.00;99.90
52643;DHT22;38531;53.296;6.614;2023-06-14T23:47:32;15.00;99.90
52643;DHT22;38531;53.296;6.614;2023-06-14T23:50:00;15.00;99.90
52643;DHT22;38531;53.296;6.614;2023-06-14T23:52:29;15.00;99.90
52643;DHT22;38531;53.296;6.614;2023-06-14T23:54:56;15.00;99.90